sensor_id;sensor_type;location;lat;lon;timestamp;P1;durP1;ratioP1;P2;durP2;ratioP2
66633;SDS011;53546;52.184;5.596;2022-10-31T00:01:58;6.88;;;2.22;;
66633;SDS011;53546;52.184;5.596;2022-10-31T00:04:23;4.22;;;2.65;;
66633;SDS011;53546;52.184;5.596;2022-10-31T00:06:49;5.90;;;2.47;;
66633;SDS011;53546;52.184;5.596;2022-10-31T00:09:14;6.25;;;3.15;;
66633;SDS011;53546;52.184;5.596;2022-10-31T00:11:39;4.53;;;2.50;;
66633;SDS011;53546;52.184;5.596;2022-10-31T00:14:05;3.45;;;2.40;;
66633;SDS011;53546;52.184;5.596;2022-10-31T00:16:30;4.35;;;2.40;;
66633;SDS011;53546;52.184;5.596;2022-10-31T00:19:00;4.45;;;2.70;;
66633;SDS011;53546;52.184;5.596;2022-10-31T00:21:28;3.65;;;2.40;;
66633;SDS011;53546;52.184;5.596;2022-10-31T00:23:54;4.43;;;2.50;;
66633;SDS011;53546;52.184;5.596;2022-10-31T00:26:19;5.25;;;2.53;;
66633;SDS011;53546;52.184;5.596;2022-10-31T00:28:45;5.07;;;2.72;;
66633;SDS011;53546;52.184;5.596;2022-10-31T00:31:11;4.40;;;2.28;;
66633;SDS011;53546;52.184;5.596;2022-10-31T00:33:37;4.38;;;2.40;;
66633;SDS011;53546;52.184;5.596;2022-10-31T00:36:04;5.63;;;2.83;;
66633;SDS011;53546;52.184;5.596;2022-10-31T00:38:30;5.53;;;2.53;;
66633;SDS011;53546;52.184;5.596;2022-10-31T00:40:55;3.50;;;2.65;;
66633;SDS011;53546;52.184;5.596;2022-10-31T00:43:21;4.72;;;2.40;;
66633;SDS011;53546;52.184;5.596;2022-10-31T00:45:46;4.93;;;2.28;;
66633;SDS011;53546;52.184;5.596;2022-10-31T00:48:11;5.60;;;2.67;;
66633;SDS011;53546;52.184;5.596;2022-10-31T00:50:37;3.95;;;2.30;;
66633;SDS011;53546;52.184;5.596;2022-10-31T00:53:03;5.60;;;2.25;;
66633;SDS011;53546;52.184;5.596;2022-10-31T00:55:28;3.08;;;2.28;;
66633;SDS011;53546;52.184;5.596;2022-10-31T00:57:54;3.38;;;2.40;;
66633;SDS011;53546;52.184;5.596;2022-10-31T01:00:19;4.53;;;2.53;;
66633;SDS011;53546;52.184;5.596;2022-10-31T01:02:44;3.75;;;2.55;;
66633;SDS011;53546;52.184;5.596;2022-10-31T01:05:10;5.20;;;2.35;;
66633;SDS011;53546;52.184;5.596;2022-10-31T01:07:36;3.60;;;2.58;;
66633;SDS011;53546;52.184;5.596;2022-10-31T01:10:02;4.05;;;2.42;;
66633;SDS011;53546;52.184;5.596;2022-10-31T01:12:28;4.18;;;2.33;;
66633;SDS011;53546;52.184;5.596;2022-10-31T01:14:53;5.82;;;2.70;;
66633;SDS011;53546;52.184;5.596;2022-10-31T01:17:19;3.13;;;2.20;;
66633;SDS011;53546;52.184;5.596;2022-10-31T01:19:44;6.65;;;2.80;;
66633;SDS011;53546;52.184;5.596;2022-10-31T01:22:10;3.45;;;2.20;;
66633;SDS011;53546;52.184;5.596;2022-10-31T01:24:35;4.00;;;2.30;;
66633;SDS011;53546;52.184;5.596;2022-10-31T01:27:00;5.30;;;2.35;;
66633;SDS011;53546;52.184;5.596;2022-10-31T01:29:26;4.18;;;2.38;;
66633;SDS011;53546;52.184;5.596;2022-10-31T01:31:51;3.72;;;2.17;;
66633;SDS011;53546;52.184;5.596;2022-10-31T01:34:17;5.35;;;2.50;;
66633;SDS011;53546;52.184;5.596;2022-10-31T01:36:43;3.70;;;2.50;;
66633;SDS011;53546;52.184;5.596;2022-10-31T01:39:14;4.43;;;2.65;;
66633;SDS011;53546;52.184;5.596;2022-10-31T01:41:41;3.45;;;2.45;;
66633;SDS011;53546;52.184;5.596;2022-10-31T01:46:43;4.10;;;2.75;;
66633;SDS011;53546;52.184;5.596;2022-10-31T01:49:21;3.63;;;2.60;;
66633;SDS011;53546;52.184;5.596;2022-10-31T01:51:51;4.93;;;2.50;;
66633;SDS011;53546;52.184;5.596;2022-10-31T01:54:24;3.25;;;2.60;;
66633;SDS011;53546;52.184;5.596;2022-10-31T01:56:53;2.78;;;2.20;;
66633;SDS011;53546;52.184;5.596;2022-10-31T01:59:20;7.72;;;2.72;;
66633;SDS011;53546;52.184;5.596;2022-10-31T02:01:46;4.22;;;2.85;;
66633;SDS011;53546;52.184;5.596;2022-10-31T02:04:13;4.70;;;2.50;;
66633;SDS011;53546;52.184;5.596;2022-10-31T02:06:41;5.22;;;2.67;;
66633;SDS011;53546;52.184;5.596;2022-10-31T02:09:09;3.17;;;2.42;;
66633;SDS011;53546;52.184;5.596;2022-10-31T02:11:35;4.63;;;2.60;;
66633;SDS011;53546;52.184;5.596;2022-10-31T02:14:02;4.45;;;2.33;;
66633;SDS011;53546;52.184;5.596;2022-10-31T02:16:28;6.40;;;2.70;;
66633;SDS011;53546;52.184;5.596;2022-10-31T02:18:53;4.93;;;2.30;;
66633;SDS011;53546;52.184;5.596;2022-10-31T02:21:23;3.60;;;2.50;;
66633;SDS011;53546;52.184;5.596;2022-10-31T02:37:21;2.65;;;2.15;;
66633;SDS011;53546;52.184;5.596;2022-10-31T02:42:17;3.63;;;2.60;;
66633;SDS011;53546;52.184;5.596;2022-10-31T02:47:23;5.47;;;2.53;;
66633;SDS011;53546;52.184;5.596;2022-10-31T02:50:02;4.90;;;2.50;;
66633;SDS011;53546;52.184;5.596;2022-10-31T02:52:32;3.03;;;2.10;;
66633;SDS011;53546;52.184;5.596;2022-10-31T02:54:58;3.15;;;2.33;;
66633;SDS011;53546;52.184;5.596;2022-10-31T02:57:33;3.72;;;2.22;;
66633;SDS011;53546;52.184;5.596;2022-10-31T03:00:04;2.95;;;2.28;;
66633;SDS011;53546;52.184;5.596;2022-10-31T03:05:23;5.30;;;2.42;;
66633;SDS011;53546;52.184;5.596;2022-10-31T03:10:45;3.22;;;2.33;;
66633;SDS011;53546;52.184;5.596;2022-10-31T03:15:46;2.65;;;2.05;;
66633;SDS011;53546;52.184;5.596;2022-10-31T03:20:47;3.30;;;2.30;;
66633;SDS011;53546;52.184;5.596;2022-10-31T03:23:17;3.80;;;2.42;;
66633;SDS011;53546;52.184;5.596;2022-10-31T03:25:44;3.22;;;2.22;;
66633;SDS011;53546;52.184;5.596;2022-10-31T03:28:11;3.72;;;2.53;;
66633;SDS011;53546;52.184;5.596;2022-10-31T03:30:38;3.72;;;2.15;;
66633;SDS011;53546;52.184;5.596;2022-10-31T03:33:07;3.17;;;2.10;;
66633;SDS011;53546;52.184;5.596;2022-10-31T03:35:35;3.85;;;2.03;;
66633;SDS011;53546;52.184;5.596;2022-10-31T03:38:01;4.18;;;2.38;;
66633;SDS011;53546;52.184;5.596;2022-10-31T03:40:28;3.20;;;2.15;;
66633;SDS011;53546;52.184;5.596;2022-10-31T03:42:56;2.00;;;1.88;;
66633;SDS011;53546;52.184;5.596;2022-10-31T03:45:24;4.00;;;2.17;;
66633;SDS011;53546;52.184;5.596;2022-10-31T03:47:52;2.92;;;1.98;;
66633;SDS011;53546;52.184;5.596;2022-10-31T03:50:18;5.00;;;2.50;;
66633;SDS011;53546;52.184;5.596;2022-10-31T03:52:49;5.40;;;2.30;;
66633;SDS011;53546;52.184;5.596;2022-10-31T03:55:28;2.60;;;1.98;;
66633;SDS011;53546;52.184;5.596;2022-10-31T03:58:00;2.85;;;2.28;;
66633;SDS011;53546;52.184;5.596;2022-10-31T04:00:29;3.88;;;2.20;;
66633;SDS011;53546;52.184;5.596;2022-10-31T04:03:04;3.63;;;2.20;;
66633;SDS011;53546;52.184;5.596;2022-10-31T04:05:31;4.95;;;2.42;;
66633;SDS011;53546;52.184;5.596;2022-10-31T04:07:57;2.88;;;2.30;;
66633;SDS011;53546;52.184;5.596;2022-10-31T04:10:23;4.90;;;2.58;;
66633;SDS011;53546;52.184;5.596;2022-10-31T04:12:52;2.70;;;2.03;;
66633;SDS011;53546;52.184;5.596;2022-10-31T04:15:21;3.15;;;2.00;;
66633;SDS011;53546;52.184;5.596;2022-10-31T04:17:47;7.15;;;2.10;;
66633;SDS011;53546;52.184;5.596;2022-10-31T04:20:15;2.47;;;1.95;;
66633;SDS011;53546;52.184;5.596;2022-10-31T04:22:41;3.90;;;2.00;;
66633;SDS011;53546;52.184;5.596;2022-10-31T04:25:07;2.85;;;2.08;;
66633;SDS011;53546;52.184;5.596;2022-10-31T04:27:33;5.47;;;2.42;;
66633;SDS011;53546;52.184;5.596;2022-10-31T04:29:58;4.72;;;2.00;;
66633;SDS011;53546;52.184;5.596;2022-10-31T04:32:24;4.05;;;2.10;;
66633;SDS011;53546;52.184;5.596;2022-10-31T04:34:49;2.30;;;2.03;;
66633;SDS011;53546;52.184;5.596;2022-10-31T04:37:15;4.07;;;2.30;;
66633;SDS011;53546;52.184;5.596;2022-10-31T04:39:40;2.85;;;2.25;;
66633;SDS011;53546;52.184;5.596;2022-10-31T04:42:06;4.18;;;2.10;;
66633;SDS011;53546;52.184;5.596;2022-10-31T04:44:31;3.42;;;2.25;;
66633;SDS011;53546;52.184;5.596;2022-10-31T04:46:56;4.53;;;2.30;;
66633;SDS011;53546;52.184;5.596;2022-10-31T04:49:22;2.83;;;2.47;;
66633;SDS011;53546;52.184;5.596;2022-10-31T04:51:47;4.97;;;2.40;;
66633;SDS011;53546;52.184;5.596;2022-10-31T04:54:12;4.07;;;2.15;;
66633;SDS011;53546;52.184;5.596;2022-10-31T04:56:38;3.55;;;2.10;;
66633;SDS011;53546;52.184;5.596;2022-10-31T04:59:03;4.97;;;2.15;;
66633;SDS011;53546;52.184;5.596;2022-10-31T05:01:28;4.53;;;2.47;;
66633;SDS011;53546;52.184;5.596;2022-10-31T05:03:54;3.90;;;2.40;;
66633;SDS011;53546;52.184;5.596;2022-10-31T05:06:19;7.03;;;2.78;;
66633;SDS011;53546;52.184;5.596;2022-10-31T05:08:44;5.47;;;2.67;;
66633;SDS011;53546;52.184;5.596;2022-10-31T05:11:10;5.00;;;2.65;;
66633;SDS011;53546;52.184;5.596;2022-10-31T05:13:35;10.23;;;2.85;;
66633;SDS011;53546;52.184;5.596;2022-10-31T05:16:01;7.40;;;3.33;;
66633;SDS011;53546;52.184;5.596;2022-10-31T05:18:27;7.07;;;2.70;;
66633;SDS011;53546;52.184;5.596;2022-10-31T05:20:53;5.45;;;3.20;;
66633;SDS011;53546;52.184;5.596;2022-10-31T05:23:18;6.38;;;2.80;;
66633;SDS011;53546;52.184;5.596;2022-10-31T05:25:43;5.10;;;2.55;;
66633;SDS011;53546;52.184;5.596;2022-10-31T05:28:09;4.57;;;2.47;;
66633;SDS011;53546;52.184;5.596;2022-10-31T05:30:34;7.30;;;2.92;;
66633;SDS011;53546;52.184;5.596;2022-10-31T05:33:00;10.30;;;3.05;;
66633;SDS011;53546;52.184;5.596;2022-10-31T05:35:30;8.02;;;2.80;;
66633;SDS011;53546;52.184;5.596;2022-10-31T05:37:56;9.02;;;3.10;;
66633;SDS011;53546;52.184;5.596;2022-10-31T05:40:23;5.57;;;2.80;;
66633;SDS011;53546;52.184;5.596;2022-10-31T05:42:50;6.20;;;2.80;;
66633;SDS011;53546;52.184;5.596;2022-10-31T05:45:17;5.57;;;2.92;;
66633;SDS011;53546;52.184;5.596;2022-10-31T05:47:49;11.13;;;3.28;;
66633;SDS011;53546;52.184;5.596;2022-10-31T05:50:15;8.07;;;3.33;;
66633;SDS011;53546;52.184;5.596;2022-10-31T05:52:41;14.60;;;5.53;;
66633;SDS011;53546;52.184;5.596;2022-10-31T05:55:06;24.38;;;8.13;;
66633;SDS011;53546;52.184;5.596;2022-10-31T05:57:32;29.80;;;6.50;;
66633;SDS011;53546;52.184;5.596;2022-10-31T05:59:58;23.08;;;6.45;;
66633;SDS011;53546;52.184;5.596;2022-10-31T06:02:23;18.52;;;5.93;;
66633;SDS011;53546;52.184;5.596;2022-10-31T06:04:49;19.05;;;5.93;;
66633;SDS011;53546;52.184;5.596;2022-10-31T06:07:14;19.52;;;6.18;;
66633;SDS011;53546;52.184;5.596;2022-10-31T06:09:39;15.23;;;5.43;;
66633;SDS011;53546;52.184;5.596;2022-10-31T06:12:05;18.98;;;6.20;;
66633;SDS011;53546;52.184;5.596;2022-10-31T06:14:30;14.25;;;5.18;;
66633;SDS011;53546;52.184;5.596;2022-10-31T06:16:56;14.18;;;5.40;;
66633;SDS011;53546;52.184;5.596;2022-10-31T06:19:21;18.92;;;5.60;;
66633;SDS011;53546;52.184;5.596;2022-10-31T06:21:47;14.65;;;5.30;;
66633;SDS011;53546;52.184;5.596;2022-10-31T06:24:12;15.00;;;5.00;;
66633;SDS011;53546;52.184;5.596;2022-10-31T06:26:37;13.35;;;5.50;;
66633;SDS011;53546;52.184;5.596;2022-10-31T06:29:03;16.17;;;5.40;;
66633;SDS011;53546;52.184;5.596;2022-10-31T06:31:29;12.00;;;5.10;;
66633;SDS011;53546;52.184;5.596;2022-10-31T06:33:55;13.50;;;5.03;;
66633;SDS011;53546;52.184;5.596;2022-10-31T06:36:21;10.70;;;4.80;;
66633;SDS011;53546;52.184;5.596;2022-10-31T06:38:46;12.93;;;4.82;;
66633;SDS011;53546;52.184;5.596;2022-10-31T06:41:12;11.85;;;4.60;;
66633;SDS011;53546;52.184;5.596;2022-10-31T06:43:37;11.60;;;5.28;;
66633;SDS011;53546;52.184;5.596;2022-10-31T06:46:03;9.63;;;4.45;;
66633;SDS011;53546;52.184;5.596;2022-10-31T06:48:29;11.15;;;5.03;;
66633;SDS011;53546;52.184;5.596;2022-10-31T06:50:58;8.73;;;4.30;;
66633;SDS011;53546;52.184;5.596;2022-10-31T06:53:24;12.32;;;4.70;;
66633;SDS011;53546;52.184;5.596;2022-10-31T06:55:50;9.68;;;4.35;;
66633;SDS011;53546;52.184;5.596;2022-10-31T06:58:15;6.85;;;4.15;;
66633;SDS011;53546;52.184;5.596;2022-10-31T07:00:41;10.20;;;4.80;;
66633;SDS011;53546;52.184;5.596;2022-10-31T07:03:08;13.43;;;5.03;;
66633;SDS011;53546;52.184;5.596;2022-10-31T07:05:35;10.15;;;4.55;;
66633;SDS011;53546;52.184;5.596;2022-10-31T07:08:02;11.35;;;4.20;;
66633;SDS011;53546;52.184;5.596;2022-10-31T07:10:29;9.98;;;5.43;;
66633;SDS011;53546;52.184;5.596;2022-10-31T07:12:56;11.02;;;4.55;;
66633;SDS011;53546;52.184;5.596;2022-10-31T07:15:27;10.05;;;4.72;;
66633;SDS011;53546;52.184;5.596;2022-10-31T07:17:53;10.38;;;4.47;;
66633;SDS011;53546;52.184;5.596;2022-10-31T07:20:19;9.70;;;4.93;;
66633;SDS011;53546;52.184;5.596;2022-10-31T07:22:44;10.30;;;4.57;;
66633;SDS011;53546;52.184;5.596;2022-10-31T07:25:10;7.72;;;4.57;;
66633;SDS011;53546;52.184;5.596;2022-10-31T07:27:39;7.35;;;4.50;;
66633;SDS011;53546;52.184;5.596;2022-10-31T07:30:06;5.82;;;4.25;;
66633;SDS011;53546;52.184;5.596;2022-10-31T07:32:42;9.65;;;4.75;;
66633;SDS011;53546;52.184;5.596;2022-10-31T07:35:10;8.52;;;5.03;;
66633;SDS011;53546;52.184;5.596;2022-10-31T07:37:36;8.07;;;4.50;;
66633;SDS011;53546;52.184;5.596;2022-10-31T07:40:02;9.35;;;4.93;;
66633;SDS011;53546;52.184;5.596;2022-10-31T07:42:29;8.38;;;4.82;;
66633;SDS011;53546;52.184;5.596;2022-10-31T07:44:54;5.28;;;4.40;;
66633;SDS011;53546;52.184;5.596;2022-10-31T07:47:20;7.70;;;4.63;;
66633;SDS011;53546;52.184;5.596;2022-10-31T07:49:45;8.93;;;5.10;;
66633;SDS011;53546;52.184;5.596;2022-10-31T07:52:10;7.53;;;4.53;;
66633;SDS011;53546;52.184;5.596;2022-10-31T07:54:36;7.97;;;4.30;;
66633;SDS011;53546;52.184;5.596;2022-10-31T07:57:01;11.48;;;4.47;;
66633;SDS011;53546;52.184;5.596;2022-10-31T07:59:26;7.03;;;4.78;;
66633;SDS011;53546;52.184;5.596;2022-10-31T08:01:52;6.85;;;4.60;;
66633;SDS011;53546;52.184;5.596;2022-10-31T08:04:17;8.93;;;4.13;;
66633;SDS011;53546;52.184;5.596;2022-10-31T08:06:43;10.13;;;4.95;;
66633;SDS011;53546;52.184;5.596;2022-10-31T08:09:08;8.07;;;4.50;;
66633;SDS011;53546;52.184;5.596;2022-10-31T08:11:34;8.52;;;4.32;;
66633;SDS011;53546;52.184;5.596;2022-10-31T08:13:59;13.68;;;5.05;;
66633;SDS011;53546;52.184;5.596;2022-10-31T08:16:24;8.85;;;4.32;;
66633;SDS011;53546;52.184;5.596;2022-10-31T08:18:50;8.70;;;4.82;;
66633;SDS011;53546;52.184;5.596;2022-10-31T08:21:15;6.35;;;4.60;;
66633;SDS011;53546;52.184;5.596;2022-10-31T08:23:40;9.27;;;4.57;;
66633;SDS011;53546;52.184;5.596;2022-10-31T08:26:06;9.15;;;4.50;;
66633;SDS011;53546;52.184;5.596;2022-10-31T08:28:31;7.53;;;4.28;;
66633;SDS011;53546;52.184;5.596;2022-10-31T08:30:57;8.43;;;4.78;;
66633;SDS011;53546;52.184;5.596;2022-10-31T08:33:23;8.50;;;4.95;;
66633;SDS011;53546;52.184;5.596;2022-10-31T08:35:48;6.38;;;4.43;;
66633;SDS011;53546;52.184;5.596;2022-10-31T08:38:14;6.53;;;4.65;;
66633;SDS011;53546;52.184;5.596;2022-10-31T08:40:40;8.55;;;4.72;;
66633;SDS011;53546;52.184;5.596;2022-10-31T08:43:06;10.05;;;4.70;;
66633;SDS011;53546;52.184;5.596;2022-10-31T08:45:38;6.87;;;4.93;;
66633;SDS011;53546;52.184;5.596;2022-10-31T08:48:05;7.97;;;4.70;;
66633;SDS011;53546;52.184;5.596;2022-10-31T08:50:32;9.88;;;4.75;;
66633;SDS011;53546;52.184;5.596;2022-10-31T08:52:59;7.03;;;4.70;;
66633;SDS011;53546;52.184;5.596;2022-10-31T08:55:29;12.10;;;5.00;;
66633;SDS011;53546;52.184;5.596;2022-10-31T08:57:55;8.13;;;4.57;;
66633;SDS011;53546;52.184;5.596;2022-10-31T09:00:24;7.63;;;4.25;;
66633;SDS011;53546;52.184;5.596;2022-10-31T09:03:00;5.45;;;4.20;;
66633;SDS011;53546;52.184;5.596;2022-10-31T09:05:27;8.88;;;4.63;;
66633;SDS011;53546;52.184;5.596;2022-10-31T09:07:59;8.52;;;4.80;;
66633;SDS011;53546;52.184;5.596;2022-10-31T09:10:25;5.90;;;4.28;;
66633;SDS011;53546;52.184;5.596;2022-10-31T09:12:55;8.32;;;4.30;;
66633;SDS011;53546;52.184;5.596;2022-10-31T09:15:21;8.40;;;4.20;;
66633;SDS011;53546;52.184;5.596;2022-10-31T09:17:47;9.27;;;5.10;;
66633;SDS011;53546;52.184;5.596;2022-10-31T09:20:13;8.77;;;5.18;;
66633;SDS011;53546;52.184;5.596;2022-10-31T09:22:38;13.82;;;5.13;;
66633;SDS011;53546;52.184;5.596;2022-10-31T09:25:04;7.88;;;4.68;;
66633;SDS011;53546;52.184;5.596;2022-10-31T09:27:29;8.45;;;5.00;;
66633;SDS011;53546;52.184;5.596;2022-10-31T09:29:54;6.55;;;4.80;;
66633;SDS011;53546;52.184;5.596;2022-10-31T09:32:20;9.88;;;5.03;;
66633;SDS011;53546;52.184;5.596;2022-10-31T09:34:45;7.32;;;4.95;;
66633;SDS011;53546;52.184;5.596;2022-10-31T09:37:10;10.30;;;5.22;;
66633;SDS011;53546;52.184;5.596;2022-10-31T09:39:36;9.55;;;5.55;;
66633;SDS011;53546;52.184;5.596;2022-10-31T09:42:04;8.30;;;4.82;;
66633;SDS011;53546;52.184;5.596;2022-10-31T09:47:27;8.15;;;5.05;;
66633;SDS011;53546;52.184;5.596;2022-10-31T09:50:13;10.13;;;4.75;;
66633;SDS011;53546;52.184;5.596;2022-10-31T09:52:47;6.43;;;4.45;;
66633;SDS011;53546;52.184;5.596;2022-10-31T09:55:37;6.00;;;4.45;;
66633;SDS011;53546;52.184;5.596;2022-10-31T09:58:04;6.63;;;4.20;;
66633;SDS011;53546;52.184;5.596;2022-10-31T10:00:30;5.78;;;4.38;;
66633;SDS011;53546;52.184;5.596;2022-10-31T10:08:32;6.97;;;4.13;;
66633;SDS011;53546;52.184;5.596;2022-10-31T10:30:18;7.60;;;4.22;;
66633;SDS011;53546;52.184;5.596;2022-10-31T10:35:29;7.03;;;4.00;;
66633;SDS011;53546;52.184;5.596;2022-10-31T10:37:58;5.60;;;4.05;;
66633;SDS011;53546;52.184;5.596;2022-10-31T10:40:27;7.38;;;4.40;;
66633;SDS011;53546;52.184;5.596;2022-10-31T10:43:38;8.95;;;4.55;;
66633;SDS011;53546;52.184;5.596;2022-10-31T10:45:56;5.15;;;3.75;;
66633;SDS011;53546;52.184;5.596;2022-10-31T10:49:17;5.72;;;3.70;;
66633;SDS011;53546;52.184;5.596;2022-10-31T10:59:43;11.98;;;4.72;;
66633;SDS011;53546;52.184;5.596;2022-10-31T11:02:19;6.35;;;4.53;;
66633;SDS011;53546;52.184;5.596;2022-10-31T11:04:58;9.05;;;4.78;;
66633;SDS011;53546;52.184;5.596;2022-10-31T11:07:25;8.07;;;5.20;;
66633;SDS011;53546;52.184;5.596;2022-10-31T11:09:51;11.50;;;5.18;;
66633;SDS011;53546;52.184;5.596;2022-10-31T11:12:29;8.60;;;5.20;;
66633;SDS011;53546;52.184;5.596;2022-10-31T11:14:58;13.65;;;5.03;;
66633;SDS011;53546;52.184;5.596;2022-10-31T11:17:39;9.52;;;6.20;;
66633;SDS011;53546;52.184;5.596;2022-10-31T11:20:20;8.35;;;5.63;;
66633;SDS011;53546;52.184;5.596;2022-10-31T11:22:55;9.68;;;5.78;;
66633;SDS011;53546;52.184;5.596;2022-10-31T11:25:30;10.18;;;5.70;;
66633;SDS011;53546;52.184;5.596;2022-10-31T11:28:02;7.82;;;5.75;;
66633;SDS011;53546;52.184;5.596;2022-10-31T11:30:35;8.77;;;5.45;;
66633;SDS011;53546;52.184;5.596;2022-10-31T11:33:16;9.48;;;4.88;;
66633;SDS011;53546;52.184;5.596;2022-10-31T11:36:09;9.70;;;6.10;;
66633;SDS011;53546;52.184;5.596;2022-10-31T11:38:41;8.57;;;5.40;;
66633;SDS011;53546;52.184;5.596;2022-10-31T11:41:09;10.90;;;6.55;;
66633;SDS011;53546;52.184;5.596;2022-10-31T11:43:38;12.20;;;6.45;;
66633;SDS011;53546;52.184;5.596;2022-10-31T11:46:10;8.70;;;6.50;;
66633;SDS011;53546;52.184;5.596;2022-10-31T11:48:36;11.75;;;6.97;;
66633;SDS011;53546;52.184;5.596;2022-10-31T11:51:02;9.80;;;5.32;;
66633;SDS011;53546;52.184;5.596;2022-10-31T11:53:30;10.88;;;6.20;;
66633;SDS011;53546;52.184;5.596;2022-10-31T11:56:03;11.55;;;5.80;;
66633;SDS011;53546;52.184;5.596;2022-10-31T11:58:29;10.63;;;5.35;;
66633;SDS011;53546;52.184;5.596;2022-10-31T12:00:55;11.60;;;6.22;;
66633;SDS011;53546;52.184;5.596;2022-10-31T12:05:47;8.90;;;5.70;;
66633;SDS011;53546;52.184;5.596;2022-10-31T12:08:15;11.60;;;6.18;;
66633;SDS011;53546;52.184;5.596;2022-10-31T12:10:49;10.40;;;6.47;;
66633;SDS011;53546;52.184;5.596;2022-10-31T12:13:51;13.82;;;6.82;;
66633;SDS011;53546;52.184;5.596;2022-10-31T12:16:44;11.32;;;6.15;;
66633;SDS011;53546;52.184;5.596;2022-10-31T12:19:36;11.65;;;6.82;;
66633;SDS011;53546;52.184;5.596;2022-10-31T12:30:09;12.02;;;6.88;;
66633;SDS011;53546;52.184;5.596;2022-10-31T12:32:40;8.73;;;6.43;;
66633;SDS011;53546;52.184;5.596;2022-10-31T12:43:33;10.55;;;7.03;;
66633;SDS011;53546;52.184;5.596;2022-10-31T12:57:44;14.07;;;7.38;;
66633;SDS011;53546;52.184;5.596;2022-10-31T13:00:12;13.73;;;7.63;;
66633;SDS011;53546;52.184;5.596;2022-10-31T13:08:06;12.45;;;8.52;;
66633;SDS011;53546;52.184;5.596;2022-10-31T13:13:42;13.60;;;7.72;;
66633;SDS011;53546;52.184;5.596;2022-10-31T13:16:13;13.32;;;7.75;;
66633;SDS011;53546;52.184;5.596;2022-10-31T13:21:12;17.38;;;7.72;;
66633;SDS011;53546;52.184;5.596;2022-10-31T13:23:43;16.30;;;8.55;;
66633;SDS011;53546;52.184;5.596;2022-10-31T13:26:15;17.48;;;9.57;;
66633;SDS011;53546;52.184;5.596;2022-10-31T13:28:50;15.50;;;8.93;;
66633;SDS011;53546;52.184;5.596;2022-10-31T13:31:20;13.45;;;8.07;;
66633;SDS011;53546;52.184;5.596;2022-10-31T13:33:57;13.55;;;8.95;;
66633;SDS011;53546;52.184;5.596;2022-10-31T13:36:36;16.25;;;8.65;;
66633;SDS011;53546;52.184;5.596;2022-10-31T13:42:05;15.40;;;8.52;;
66633;SDS011;53546;52.184;5.596;2022-10-31T13:44:38;16.05;;;8.80;;
66633;SDS011;53546;52.184;5.596;2022-10-31T13:47:20;18.17;;;8.52;;
66633;SDS011;53546;52.184;5.596;2022-10-31T13:49:48;15.57;;;8.53;;
66633;SDS011;53546;52.184;5.596;2022-10-31T13:52:22;13.93;;;8.90;;
66633;SDS011;53546;52.184;5.596;2022-10-31T13:54:50;17.58;;;9.75;;
66633;SDS011;53546;52.184;5.596;2022-10-31T14:02:51;17.95;;;9.27;;
66633;SDS011;53546;52.184;5.596;2022-10-31T14:05:32;18.52;;;8.55;;
66633;SDS011;53546;52.184;5.596;2022-10-31T14:08:00;15.55;;;9.10;;
66633;SDS011;53546;52.184;5.596;2022-10-31T14:16:23;16.08;;;9.05;;
66633;SDS011;53546;52.184;5.596;2022-10-31T14:19:02;18.48;;;9.38;;
66633;SDS011;53546;52.184;5.596;2022-10-31T14:21:35;16.33;;;9.00;;
66633;SDS011;53546;52.184;5.596;2022-10-31T14:24:02;18.90;;;8.90;;
66633;SDS011;53546;52.184;5.596;2022-10-31T14:26:59;14.73;;;8.90;;
66633;SDS011;53546;52.184;5.596;2022-10-31T14:29:54;14.48;;;8.35;;
66633;SDS011;53546;52.184;5.596;2022-10-31T14:32:23;15.48;;;8.80;;
66633;SDS011;53546;52.184;5.596;2022-10-31T14:45:20;15.38;;;8.82;;
66633;SDS011;53546;52.184;5.596;2022-10-31T14:53:32;14.10;;;8.55;;
66633;SDS011;53546;52.184;5.596;2022-10-31T14:55:59;15.90;;;8.20;;
66633;SDS011;53546;52.184;5.596;2022-10-31T14:58:32;20.58;;;9.18;;
66633;SDS011;53546;52.184;5.596;2022-10-31T15:01:06;18.23;;;8.85;;
66633;SDS011;53546;52.184;5.596;2022-10-31T15:03:33;16.98;;;8.70;;
66633;SDS011;53546;52.184;5.596;2022-10-31T15:06:01;14.20;;;8.75;;
66633;SDS011;53546;52.184;5.596;2022-10-31T15:08:47;16.73;;;8.57;;
66633;SDS011;53546;52.184;5.596;2022-10-31T15:11:18;14.88;;;9.20;;
66633;SDS011;53546;52.184;5.596;2022-10-31T15:13:51;16.33;;;9.18;;
66633;SDS011;53546;52.184;5.596;2022-10-31T15:16:18;15.07;;;8.40;;
66633;SDS011;53546;52.184;5.596;2022-10-31T15:18:50;14.65;;;8.45;;
66633;SDS011;53546;52.184;5.596;2022-10-31T15:21:49;15.98;;;8.25;;
66633;SDS011;53546;52.184;5.596;2022-10-31T15:24:15;13.38;;;8.15;;
66633;SDS011;53546;52.184;5.596;2022-10-31T15:26:44;14.52;;;7.63;;
66633;SDS011;53546;52.184;5.596;2022-10-31T15:29:15;14.20;;;8.27;;
66633;SDS011;53546;52.184;5.596;2022-10-31T15:31:52;14.32;;;8.93;;
66633;SDS011;53546;52.184;5.596;2022-10-31T15:37:12;13.05;;;8.50;;
66633;SDS011;53546;52.184;5.596;2022-10-31T15:39:39;15.73;;;8.27;;
66633;SDS011;53546;52.184;5.596;2022-10-31T15:42:13;12.55;;;8.35;;
66633;SDS011;53546;52.184;5.596;2022-10-31T15:44:40;14.25;;;7.93;;
66633;SDS011;53546;52.184;5.596;2022-10-31T15:47:12;15.18;;;8.00;;
66633;SDS011;53546;52.184;5.596;2022-10-31T15:49:42;15.98;;;7.57;;
66633;SDS011;53546;52.184;5.596;2022-10-31T15:52:14;13.82;;;8.35;;
66633;SDS011;53546;52.184;5.596;2022-10-31T15:54:58;15.68;;;8.38;;
66633;SDS011;53546;52.184;5.596;2022-10-31T15:57:25;17.30;;;8.15;;
66633;SDS011;53546;52.184;5.596;2022-10-31T15:59:51;25.38;;;9.55;;
66633;SDS011;53546;52.184;5.596;2022-10-31T16:02:26;20.58;;;8.75;;
66633;SDS011;53546;52.184;5.596;2022-10-31T16:04:56;20.17;;;9.07;;
66633;SDS011;53546;52.184;5.596;2022-10-31T16:07:23;15.68;;;8.60;;
66633;SDS011;53546;52.184;5.596;2022-10-31T16:12:22;14.90;;;8.18;;
66633;SDS011;53546;52.184;5.596;2022-10-31T16:14:49;15.38;;;8.65;;
66633;SDS011;53546;52.184;5.596;2022-10-31T16:17:16;17.30;;;9.02;;
66633;SDS011;53546;52.184;5.596;2022-10-31T16:20:02;20.73;;;8.55;;
66633;SDS011;53546;52.184;5.596;2022-10-31T16:22:36;18.13;;;8.65;;
66633;SDS011;53546;52.184;5.596;2022-10-31T16:25:15;19.50;;;9.35;;
66633;SDS011;53546;52.184;5.596;2022-10-31T16:27:50;18.87;;;9.60;;
66633;SDS011;53546;52.184;5.596;2022-10-31T16:30:36;19.20;;;9.18;;
66633;SDS011;53546;52.184;5.596;2022-10-31T16:33:04;17.05;;;9.73;;
66633;SDS011;53546;52.184;5.596;2022-10-31T16:35:44;17.90;;;9.68;;
66633;SDS011;53546;52.184;5.596;2022-10-31T16:38:09;20.92;;;9.82;;
66633;SDS011;53546;52.184;5.596;2022-10-31T16:40:35;22.48;;;10.55;;
66633;SDS011;53546;52.184;5.596;2022-10-31T16:43:02;17.75;;;10.05;;
66633;SDS011;53546;52.184;5.596;2022-10-31T16:45:29;21.27;;;9.40;;
66633;SDS011;53546;52.184;5.596;2022-10-31T16:48:01;22.00;;;9.05;;
66633;SDS011;53546;52.184;5.596;2022-10-31T16:50:28;20.58;;;10.18;;
66633;SDS011;53546;52.184;5.596;2022-10-31T16:52:54;18.60;;;9.60;;
66633;SDS011;53546;52.184;5.596;2022-10-31T16:55:20;19.33;;;9.18;;
66633;SDS011;53546;52.184;5.596;2022-10-31T16:57:50;22.77;;;10.20;;
66633;SDS011;53546;52.184;5.596;2022-10-31T17:00:21;19.50;;;10.48;;
66633;SDS011;53546;52.184;5.596;2022-10-31T17:02:47;24.25;;;9.60;;
66633;SDS011;53546;52.184;5.596;2022-10-31T17:05:14;21.00;;;9.95;;
66633;SDS011;53546;52.184;5.596;2022-10-31T17:07:41;16.90;;;8.77;;
66633;SDS011;53546;52.184;5.596;2022-10-31T17:10:07;21.30;;;9.00;;
66633;SDS011;53546;52.184;5.596;2022-10-31T17:12:33;17.15;;;8.65;;
66633;SDS011;53546;52.184;5.596;2022-10-31T17:14:58;19.85;;;8.20;;
66633;SDS011;53546;52.184;5.596;2022-10-31T17:17:24;16.67;;;9.13;;
66633;SDS011;53546;52.184;5.596;2022-10-31T17:19:50;16.25;;;9.10;;
66633;SDS011;53546;52.184;5.596;2022-10-31T17:22:15;18.70;;;9.65;;